Terminal Aerodrome Forecast
Issued by NWS

Home | Current Version | Previous Version | Text Only | Print | Product List | Glossary On
Versions: 1 2 3 4 5 6 7 8 9 10 11 12 13 14 15 16 17 18 19
000
FTUS43 KFGF 210500
TAFDVL
TAF
KDVL 210520Z 2106/2206 32014KT P6SM BKN070
     FM210800 32008KT P6SM SCT080
     FM211900 33009KT P6SM BKN050
     FM220100 VRB05KT P6SM FEW250
      AMD LTD TO CLD VIS AND WIND=

USA.gov is the U.S. government's official web portal to all federal, state and local government web resources and services.